.
WxDataArchive / Data Records for 2007-04-17
2007-04-16 April 2007 2007-04-18

Data Records for Tuesday, 17 April 2007

Time	Temp	Chill	HIndex	Humid	Dewpt	 Wind 	HiWind	WindDir	Rain 	Barom 
-----	----	-----	------	-----	-----	------	------	-------	-----	----- 
00:00	42.3	42.3	42.3	43	21.4	0	2	338	0.00	29.925 
00:05	42.2	42.2	42.2	43	21.3	0	1	315	0.00	29.926 
00:10	42.1	42.1	42.1	44	21.8	0	1	315	0.00	29.928 
00:15	41.8	41.8	41.8	44	21.5	0	2	292	0.00	29.930 
00:20	41.8	41.8	41.8	44	21.5	0	1	292	0.00	29.928 
00:25	41.6	41.6	41.6	45	21.9	0	0	---	0.00	29.926 
00:30	41.5	41.5	41.5	45	21.8	0	1	292	0.00	29.927 
00:35	41.1	41.1	41.1	46	21.9	0	1	292	0.00	29.927 
00:40	40.8	40.8	40.8	46	21.6	0	1	292	0.00	29.929 
00:45	40.5	40.5	40.5	47	21.9	0	1	292	0.00	29.927 
00:50	40.2	40.2	40.2	47	21.6	0	0	---	0.00	29.924 
00:55	39.8	39.8	39.8	48	21.7	0	0	---	0.00	29.924 
01:00	39.5	39.5	39.5	50	22.4	0	1	292	0.00	29.924 
01:05	39.1	39.1	39.1	50	22.0	0	1	292	0.00	29.924 
01:10	38.9	38.9	38.9	51	22.3	0	1	292	0.00	29.923 
01:15	38.8	38.8	38.8	51	22.2	0	1	292	0.00	29.924 
01:20	38.8	38.8	38.8	51	22.2	0	2	292	0.00	29.923 
01:25	38.8	38.8	38.8	51	22.2	0	2	248	0.00	29.923 
01:30	39.1	39.1	39.1	51	22.5	0	1	248	0.00	29.924 
01:35	38.9	38.9	38.9	51	22.3	0	1	248	0.00	29.924 
01:40	38.8	38.8	38.8	51	22.2	0	1	248	0.00	29.923 
01:45	38.6	38.6	38.6	51	22.1	0	1	248	0.00	29.923 
01:50	38.5	38.5	38.5	52	22.4	0	1	248	0.00	29.921 
01:55	38.5	38.5	38.5	52	22.4	0	1	248	0.00	29.918 
02:00	38.5	38.5	38.5	51	22.0	0	1	248	0.00	29.917 
02:05	38.5	38.5	38.5	52	22.4	0	1	248	0.00	29.917 
02:10	38.5	38.5	38.5	52	22.4	0	0	---	0.00	29.917 
02:15	38.3	38.3	38.3	52	22.2	0	1	248	0.00	29.918 
02:20	38.2	38.2	38.2	52	22.1	0	1	248	0.00	29.917 
02:25	38.2	38.2	38.2	52	22.1	0	1	248	0.00	29.918 
02:30	37.9	37.9	37.9	53	22.3	0	0	---	0.00	29.916 
02:35	37.6	37.6	37.6	53	22.0	0	1	248	0.00	29.916 
02:40	37.3	37.3	37.3	54	22.2	0	0	---	0.00	29.918 
02:45	37.0	37.0	37.0	54	21.9	0	0	---	0.00	29.921 
02:50	36.9	36.9	36.9	55	22.3	0	1	248	0.00	29.922 
02:55	36.8	36.8	36.8	55	22.2	0	0	---	0.00	29.924 
03:00	36.6	36.6	36.6	55	22.0	0	1	248	0.00	29.925 
03:05	36.6	36.6	36.6	55	22.0	0	0	---	0.00	29.925 
03:10	36.5	36.5	36.5	56	22.3	0	1	248	0.00	29.926 
03:15	36.5	36.5	36.5	57	22.7	0	1	248	0.00	29.925 
03:20	36.3	36.3	36.3	56	22.1	0	0	---	0.00	29.927 
03:25	36.2	36.2	36.2	56	22.0	0	0	---	0.00	29.926 
03:30	36.2	36.2	36.2	57	22.5	0	0	---	0.00	29.925 
03:35	36.3	36.3	36.3	56	22.1	0	1	248	0.00	29.926 
03:40	36.5	36.5	36.5	56	22.3	0	1	248	0.00	29.924 
03:45	36.5	36.5	36.5	56	22.3	0	1	248	0.00	29.924 
03:50	36.5	36.5	36.5	56	22.3	0	0	---	0.00	29.924 
03:55	36.5	36.5	36.5	56	22.3	0	1	248	0.00	29.925 
04:00	36.5	36.5	36.5	56	22.3	0	1	248	0.00	29.926 
04:05	36.3	36.3	36.3	55	21.7	0	0	---	0.00	29.928 
04:10	36.3	36.3	36.3	56	22.1	0	0	---	0.00	29.927 
04:15	36.3	36.3	36.3	56	22.1	0	1	248	0.00	29.927 
04:20	36.3	36.3	36.3	56	22.1	0	1	248	0.00	29.927 
04:25	36.5	36.5	36.5	55	21.9	0	1	248	0.00	29.926 
04:30	36.5	36.5	36.5	55	21.9	0	0	---	0.00	29.925 
04:35	36.5	36.5	36.5	55	21.9	0	1	248	0.00	29.927 
04:40	36.5	36.5	36.5	55	21.9	0	0	---	0.00	29.928 
04:45	36.2	36.2	36.2	55	21.6	0	0	---	0.00	29.927 
04:50	36.0	36.0	36.0	56	21.8	0	0	---	0.00	29.927 
04:55	35.8	35.8	35.8	57	22.1	0	0	---	0.00	29.925 
05:00	35.5	35.5	35.5	58	22.2	0	0	---	0.00	29.925 
05:05	35.3	35.3	35.3	58	22.0	0	0	---	0.00	29.928 
05:10	35.2	35.2	35.2	58	21.9	0	0	---	0.00	29.929 
05:15	35.0	35.0	35.0	58	21.7	0	0	---	0.00	29.929 
05:20	35.0	35.0	35.0	59	22.1	0	1	248	0.00	29.930 
05:25	34.9	34.9	34.9	59	22.0	0	0	---	0.00	29.929 
05:30	34.7	34.7	34.7	59	21.9	0	0	---	0.00	29.928 
05:35	34.6	34.6	34.6	59	21.8	0	0	---	0.00	29.927 
05:40	34.6	34.6	34.6	59	21.8	0	0	---	0.00	29.927 
05:45	34.6	34.6	34.6	59	21.8	0	0	---	0.00	29.927 
05:50	34.4	34.4	34.4	60	22.0	0	0	---	0.00	29.930 
05:55	34.3	34.3	34.3	60	21.9	0	0	---	0.00	29.932 
06:00	34.0	34.0	34.0	61	22.0	0	0	---	0.00	29.934 
06:05	33.7	33.7	33.7	62	22.1	0	0	---	0.00	29.937 
06:10	33.4	33.4	33.4	63	22.2	0	0	---	0.00	29.940 
06:15	33.2	33.2	33.2	63	22.0	0	0	---	0.00	29.939 
06:20	33.2	33.2	33.2	63	22.0	0	0	---	0.00	29.943 
06:25	33.4	33.4	33.4	64	22.6	0	0	---	0.00	29.946 
06:30	33.5	33.5	33.5	63	22.3	0	0	---	0.00	29.944 
06:35	34.0	34.0	34.0	63	22.7	0	1	248	0.00	29.945 
06:40	34.7	34.7	34.7	62	23.0	0	0	---	0.00	29.947 
06:45	35.5	35.5	35.5	61	23.4	0	0	---	0.00	29.949 
06:50	36.2	36.2	36.2	60	23.7	0	1	248	0.00	29.951 
06:55	37.0	37.0	37.0	58	23.6	0	1	248	0.00	29.953 
07:00	37.8	37.8	37.8	56	23.5	0	1	248	0.00	29.955 
07:05	38.5	38.5	38.5	55	23.8	0	1	248	0.00	29.960 
07:10	39.2	39.2	39.2	54	24.0	0	1	248	0.00	29.960 
07:15	39.8	39.8	39.8	52	23.6	0	1	248	0.00	29.959 
07:20	40.3	40.3	40.3	51	23.6	0	3	292	0.00	29.960 
07:25	41.1	41.1	41.1	51	24.4	0	2	292	0.00	29.960 
07:30	41.5	41.5	41.5	49	23.8	1	2	292	0.00	29.960 
07:35	42.1	42.1	42.1	50	24.8	0	2	292	0.00	29.958 
07:40	42.5	42.5	42.5	48	24.2	1	2	292	0.00	29.959 
07:45	42.9	42.9	42.9	48	24.6	0	2	315	0.00	29.959 
07:50	43.6	43.6	43.6	47	24.7	0	2	315	0.00	29.958 
07:55	44.2	44.2	44.2	48	25.8	0	2	315	0.00	29.958 
08:00	44.8	44.8	44.8	44	24.2	0	3	292	0.00	29.958 
08:05	45.4	45.4	45.4	44	24.8	1	2	315	0.00	29.960 
08:10	46.0	46.0	46.0	44	25.3	0	2	338	0.00	29.958 
08:15	46.7	46.7	46.7	41	24.3	1	4	270	0.00	29.958 
08:20	47.4	47.4	47.4	40	24.3	0	2	270	0.00	29.958 
08:25	48.2	48.2	48.2	40	25.0	0	2	270	0.00	29.955 
08:30	48.5	48.5	48.5	39	24.7	2	5	270	0.00	29.956 
08:35	48.9	48.9	48.9	42	26.8	1	5	270	0.00	29.955 
08:40	49.5	49.5	49.5	37	24.3	1	2	315	0.00	29.954 
08:45	50.1	50.1	50.1	40	26.7	0	2	315	0.00	29.953 
08:50	51.1	51.1	51.1	37	25.7	0	2	0	0.00	29.953 
08:55	51.4	51.4	51.4	36	25.4	1	2	0	0.00	29.954 
09:00	51.6	51.6	51.6	38	26.8	1	3	292	0.00	29.954 
09:05	51.9	51.9	51.9	39	27.7	1	2	292	0.00	29.955 
09:10	52.2	52.2	52.2	35	25.4	0	3	292	0.00	29.955 
09:15	52.8	52.8	52.8	34	25.2	1	3	292	0.00	29.954 
09:20	52.6	52.6	52.6	35	25.7	1	2	338	0.00	29.953 
09:25	52.9	52.9	52.9	40	29.2	1	3	338	0.00	29.953 
09:30	53.2	53.2	53.2	33	24.9	1	3	270	0.00	29.951 
09:35	53.5	53.5	53.5	35	26.5	1	3	270	0.00	29.952 
09:40	53.8	53.8	53.8	36	27.5	1	3	270	0.00	29.954 
09:45	54.2	54.2	54.2	33	25.7	1	2	248	0.00	29.953 
09:50	54.2	54.2	54.2	34	26.4	1	3	270	0.00	29.954 
09:55	54.4	54.4	54.4	33	25.9	1	3	270	0.00	29.954 
10:00	54.8	54.8	54.8	35	27.7	1	3	338	0.00	29.952 
10:05	55.4	55.4	55.4	39	30.9	1	2	270	0.00	29.951 
10:10	55.7	55.7	55.7	34	27.8	0	3	0	0.00	29.947 
10:15	56.0	56.0	56.0	33	27.3	1	3	0	0.00	29.941 
10:20	56.2	56.2	56.2	31	26.0	1	3	0	0.00	29.938 
10:25	56.9	56.9	56.9	34	28.8	0	2	0	0.00	29.937 
10:30	57.3	57.3	57.3	37	31.3	1	2	0	0.00	29.935 
10:35	57.8	57.8	57.8	28	24.9	0	3	292	0.00	29.934 
10:40	57.8	57.8	57.8	35	30.3	1	3	292	0.00	29.933 
10:45	58.0	58.0	58.0	33	29.1	1	3	270	0.00	29.932 
10:50	58.0	58.0	58.0	29	25.9	1	3	338	0.00	29.932 
10:55	58.0	58.0	58.0	29	25.9	1	4	0	0.00	29.932 
11:00	58.1	58.1	58.1	29	26.0	1	2	248	0.00	29.929 
11:05	58.6	58.6	58.6	31	28.1	1	4	338	0.00	29.930 
11:10	58.7	58.7	58.7	33	29.7	1	4	0	0.00	29.931 
11:15	59.2	59.2	59.2	33	30.1	1	3	270	0.00	29.927 
11:20	59.5	59.5	59.5	29	27.2	2	4	248	0.00	29.921 
11:25	59.5	59.5	59.5	27	25.5	1	4	248	0.00	29.920 
11:30	59.9	59.9	59.9	31	29.2	1	3	292	0.00	29.918 
11:35	60.2	60.2	60.2	30	28.7	1	4	270	0.00	29.917 
11:40	60.1	60.1	60.1	26	25.1	1	5	338	0.00	29.916 
11:45	60.1	60.1	60.1	27	26.0	2	5	292	0.00	29.916 
11:50	60.2	60.2	60.2	27	26.1	1	4	338	0.00	29.911 
11:55	61.0	61.0	61.0	27	26.8	0	2	338	0.00	29.903 
12:00	61.5	61.5	61.5	31	30.6	1	3	270	0.00	29.901 
12:05	61.3	61.3	61.3	29	28.8	2	6	270	0.00	29.901 
12:10	61.5	61.5	61.5	27	27.2	2	4	292	0.00	29.899 
12:15	62.1	62.1	62.1	34	33.4	0	2	292	0.00	29.894 
12:20	62.6	62.6	62.6	27	28.2	2	6	248	0.00	29.892 
12:25	62.9	62.9	62.9	30	31.0	1	5	0	0.00	29.889 
12:30	63.4	63.4	63.4	26	27.9	2	3	0	0.00	29.886 
12:35	63.4	63.4	63.4	27	28.8	2	4	292	0.00	29.883 
12:40	63.2	63.2	63.2	26	27.7	2	4	248	0.00	29.883 
12:45	63.5	63.5	63.5	26	28.0	3	6	225	0.00	29.877 
12:50	63.5	63.5	63.5	26	28.0	1	5	315	0.00	29.876 
12:55	64.2	64.2	64.2	27	29.5	2	6	248	0.00	29.875 
13:00	64.5	64.5	64.5	24	26.9	1	3	248	0.00	29.872 
13:05	65.0	65.0	65.0	27	30.2	2	4	338	0.00	29.871 
13:10	65.2	65.2	65.2	25	28.5	2	4	338	0.00	29.870 
13:15	65.2	65.2	65.2	25	28.5	1	3	292	0.00	29.868 
13:20	65.6	65.6	65.6	28	31.6	1	4	292	0.00	29.869 
13:25	65.5	65.5	65.5	21	24.5	1	5	292	0.00	29.868 
13:30	65.6	65.6	65.6	25	28.8	1	4	0	0.00	29.868 
13:35	66.0	66.0	66.0	26	30.1	2	4	338	0.00	29.867 
13:40	66.0	66.0	66.0	24	28.2	1	3	292	0.00	29.867 
13:45	66.0	66.0	66.0	23	27.1	2	5	270	0.00	29.864 
13:50	66.3	66.3	66.3	25	29.4	1	3	270	0.00	29.865 
13:55	66.6	66.6	66.6	24	28.7	1	5	270	0.00	29.862 
14:00	66.8	66.8	66.8	23	27.8	2	4	315	0.00	29.861 
14:05	66.8	66.8	66.8	25	29.8	1	3	292	0.00	29.859 
14:10	66.9	66.9	66.9	24	28.9	1	3	315	0.00	29.859 
14:15	67.3	67.3	67.3	27	32.2	2	5	338	0.00	29.858 
14:20	67.1	67.1	67.1	22	27.0	2	6	0	0.00	29.854 
14:25	67.1	67.1	67.1	22	27.0	2	5	22	0.00	29.854 
14:30	67.1	67.1	67.1	25	30.1	1	5	315	0.00	29.857 
14:35	67.6	67.6	67.6	25	30.5	2	4	0	0.00	29.855 
14:40	67.9	67.9	67.9	23	28.7	2	4	315	0.00	29.855 
14:45	67.8	67.8	67.8	26	31.7	1	3	338	0.00	29.853 
14:50	68.1	68.1	68.1	21	26.7	2	5	248	0.00	29.853 
14:55	68.1	68.1	68.1	26	31.9	1	3	338	0.00	29.852 
15:00	67.8	67.8	67.8	23	28.7	2	6	338	0.00	29.849 
15:05	67.8	67.8	67.8	22	27.6	1	3	338	0.00	29.840 
15:10	68.1	68.1	68.1	22	27.8	2	7	112	0.00	29.837 
15:15	67.9	67.9	67.9	22	27.7	2	4	0	0.00	29.837 
15:20	67.9	67.9	67.9	24	29.8	1	4	0	0.00	29.836 
15:25	67.6	67.6	67.6	23	28.5	2	4	315	0.00	29.836 
15:30	67.8	67.8	67.8	25	30.7	1	4	315	0.00	29.835 
15:35	67.8	67.8	67.8	22	27.6	1	6	0	0.00	29.834 
15:40	67.9	67.9	67.9	23	28.7	1	4	292	0.00	29.833 
15:45	67.9	67.9	67.9	23	28.7	2	5	315	0.00	29.828 
15:50	67.8	67.8	67.8	23	28.7	2	5	0	0.00	29.824 
15:55	67.9	67.9	67.9	23	28.7	1	4	315	0.00	29.825 
16:00	67.9	67.9	67.9	24	29.8	2	6	338	0.00	29.823 
16:05	67.6	67.6	67.6	22	27.4	2	5	338	0.00	29.821 
16:10	67.3	67.3	67.3	22	27.2	1	3	0	0.00	29.821 
16:15	66.9	66.9	66.9	24	28.9	1	4	315	0.00	29.818 
16:20	66.6	66.6	66.6	24	28.7	1	5	270	0.00	29.820 
16:25	66.3	66.3	66.3	24	28.4	0	3	0	0.00	29.814 
16:30	66.1	66.1	66.1	23	27.2	0	1	0	0.00	29.811 
16:35	65.6	65.6	65.6	25	28.8	0	2	0	0.00	29.810 
16:40	65.2	65.2	65.2	26	29.5	0	3	22	0.00	29.809 
16:45	64.7	64.7	64.7	26	29.0	0	1	22	0.00	29.808 
16:50	64.5	64.5	64.5	27	29.8	0	1	22	0.00	29.806 
16:55	64.3	64.3	64.3	28	30.5	0	1	22	0.00	29.808 
17:00	64.3	64.3	64.3	27	29.6	0	2	22	0.00	29.806 
17:05	64.3	64.3	64.3	26	28.7	0	2	22	0.00	29.806 
17:10	64.5	64.5	64.5	27	29.8	0	2	0	0.00	29.807 
17:15	64.7	64.7	64.7	28	30.8	0	2	0	0.00	29.807 
17:20	64.8	64.8	64.8	26	29.1	0	2	0	0.00	29.808 
17:25	65.0	65.0	65.0	26	29.3	0	2	0	0.00	29.806 
17:30	65.2	65.2	65.2	26	29.5	0	2	0	0.00	29.803 
17:35	65.2	65.2	65.2	28	31.3	1	5	45	0.00	29.803 
17:40	64.5	64.5	64.5	27	29.8	2	5	90	0.00	29.805 
17:45	64.2	64.2	64.2	28	30.4	2	4	90	0.00	29.805 
17:50	63.7	63.7	63.7	27	29.1	1	4	68	0.00	29.807 
17:55	63.4	63.4	63.4	27	28.8	2	6	45	0.00	29.807 
18:00	63.2	63.2	63.2	28	29.6	2	6	112	0.00	29.809 
18:05	62.9	62.9	62.9	29	30.2	1	3	90	0.00	29.804 
18:10	62.6	62.6	62.6	28	29.0	2	5	112	0.00	29.805 
18:15	62.4	62.4	62.4	27	28.0	2	4	90	0.00	29.806 
18:20	62.4	62.4	62.4	29	29.7	2	4	22	0.00	29.808 
18:25	62.1	62.1	62.1	29	29.5	1	3	22	0.00	29.808 
18:30	62.0	62.0	62.0	30	30.2	1	3	45	0.00	29.808 
18:35	61.8	61.8	61.8	28	28.4	2	5	68	0.00	29.808 
18:40	61.5	61.5	61.5	28	28.1	1	3	68	0.00	29.808 
18:45	61.3	61.3	61.3	29	28.8	2	6	68	0.00	29.810 
18:50	60.9	60.9	60.9	30	29.3	1	4	45	0.00	29.810 
18:55	60.4	60.4	60.4	31	29.6	1	4	45	0.00	29.810 
19:00	59.9	59.9	59.9	32	30.0	1	3	68	0.00	29.811 
19:05	59.5	59.5	59.5	31	28.8	1	4	68	0.00	29.808 
19:10	59.0	59.0	59.0	33	29.9	1	2	68	0.00	29.809 
19:15	58.6	58.6	58.6	33	29.6	1	4	68	0.00	29.811 
19:20	58.3	58.3	58.3	34	30.1	1	2	90	0.00	29.815 
19:25	58.1	58.1	58.1	34	29.9	1	2	90	0.00	29.818 
19:30	58.0	58.0	58.0	35	30.5	0	2	45	0.00	29.818 
19:35	57.8	57.8	57.8	35	30.3	0	1	45	0.00	29.822 
19:40	57.5	57.5	57.5	35	30.1	1	3	45	0.00	29.823 
19:45	57.5	57.5	57.5	34	29.4	1	3	112	0.00	29.823 
19:50	57.3	57.3	57.3	34	29.2	1	3	45	0.00	29.827 
19:55	57.2	57.2	57.2	35	29.8	1	4	45	0.00	29.829 
20:00	56.9	56.9	56.9	35	29.5	1	3	22	0.00	29.826 
20:05	56.6	56.6	56.6	36	30.0	1	3	90	0.00	29.823 
20:10	56.5	56.5	56.5	36	29.9	1	3	90	0.00	29.826 
20:15	56.2	56.2	56.2	36	29.6	1	3	112	0.00	29.829 
20:20	56.0	56.0	56.0	38	30.8	1	3	45	0.00	29.828 
20:25	55.7	55.7	55.7	38	30.5	1	3	90	0.00	29.831 
20:30	55.4	55.4	55.4	38	30.2	1	4	45	0.00	29.829 
20:35	55.3	55.3	55.3	38	30.1	1	5	135	0.00	29.827 
20:40	55.1	55.1	55.1	39	30.6	1	3	90	0.00	29.828 
20:45	54.8	54.8	54.8	39	30.3	1	3	68	0.00	29.829 
20:50	54.7	54.7	54.7	39	30.2	1	3	22	0.00	29.829 
20:55	54.4	54.4	54.4	39	30.0	0	2	22	0.00	29.825 
21:00	54.2	54.2	54.2	40	30.4	0	2	45	0.00	29.827 
21:05	53.9	53.9	53.9	41	30.7	0	2	68	0.00	29.822 
21:10	53.6	53.6	53.6	41	30.5	1	3	68	0.00	29.819 
21:15	53.5	53.5	53.5	42	31.0	0	2	68	0.00	29.821 
21:20	53.5	53.5	53.5	42	31.0	0	2	68	0.00	29.820 
21:25	53.3	53.3	53.3	42	30.8	0	2	68	0.00	29.820 
21:30	53.3	53.3	53.3	43	31.4	0	2	68	0.00	29.821 
21:35	53.2	53.2	53.2	43	31.3	0	3	68	0.00	29.820 
21:40	53.1	53.1	53.1	43	31.2	0	3	22	0.00	29.819 
21:45	52.9	52.9	52.9	42	30.4	0	2	22	0.00	29.818 
21:50	52.9	52.9	52.9	43	31.0	0	2	45	0.00	29.820 
21:55	52.8	52.8	52.8	43	30.9	0	1	45	0.00	29.822 
22:00	52.8	52.8	52.8	43	30.9	0	1	45	0.00	29.821 
22:05	52.8	52.8	52.8	43	30.9	0	2	45	0.00	29.818 
22:10	52.6	52.6	52.6	43	30.7	0	2	45	0.00	29.818 
22:15	52.5	52.5	52.5	44	31.2	0	2	45	0.00	29.818 
22:20	52.2	52.2	52.2	45	31.5	1	2	68	0.00	29.819 
22:25	52.0	52.0	52.0	45	31.3	0	2	68	0.00	29.818 
22:30	51.9	51.9	51.9	45	31.2	0	2	68	0.00	29.820 
22:35	51.7	51.7	51.7	46	31.6	0	2	68	0.00	29.817 
22:40	51.6	51.6	51.6	46	31.5	0	2	68	0.00	29.821 
22:45	51.6	51.6	51.6	46	31.5	0	2	68	0.00	29.823 
22:50	51.4	51.4	51.4	48	32.4	0	2	68	0.00	29.825 
22:55	51.3	51.3	51.3	47	31.8	0	2	68	0.00	29.826 
23:00	51.3	51.3	51.3	47	31.8	0	4	112	0.00	29.827 
23:05	51.3	51.3	51.3	48	32.3	1	3	112	0.00	29.820 
23:10	51.3	51.3	51.3	48	32.3	1	4	112	0.00	29.820 
23:15	51.4	51.4	51.4	49	32.9	1	6	90	0.00	29.822 
23:20	51.4	51.4	51.4	50	33.4	1	3	90	0.00	29.826 
23:25	51.3	51.3	51.3	50	33.3	1	3	90	0.00	29.824 
23:30	51.1	51.1	51.1	51	33.6	1	2	112	0.00	29.826 
23:35	51.0	51.0	51.0	53	34.5	0	3	112	0.00	29.826 
23:40	50.7	50.7	50.7	54	34.7	1	2	112	0.00	29.823 
23:45	50.5	50.5	50.5	54	34.5	1	4	112	0.00	29.824 
23:50	50.4	50.4	50.4	55	34.8	0	3	90	0.00	29.825 
23:55	50.2	50.2	50.2	56	35.1	0	1	90	0.00	29.827 

CoCoRaHS
IN-AL-39
A2 Web Hosting
Creative Commons License
GoDaddy
Look for:

loaded 2017-12-12 16:56:08 • last modified 2010-11-18 10:43:29
Privacy PolicyDisclaimer
• wx.awcolley.com is powered by PmWiki v.2002016 •
• all content (unless otherwise noted) © 2017 A W Colley